METAR ET TAF INFORMATION
METAR FOR EBLG
ADDS - METARS form results

(0339 UTC 25 May 2019)
Data provider http://aviationweather.gov/metar/data/
 
METAR text: EBLG 250320Z VRB01KT CAVOK 08/06 Q1017 NOSIG
Conditions at: EBLG (BIERSET/LIEGE (C, BE) observed 0320 UTC 25 May 2019
Temperature: 8.0°C (46°F)
Dewpoint: 6.0°C (43°F) [RH = 87%]
Pressure (altimeter): 30.03 inches Hg (1017.0 mb)
Winds: variable direction winds at 1 MPH (1 knots; 0.5 m/s)
Visibility: 6 or more miles (10+ km)
Ceiling: ceiling and visibility are OK
Clouds: unknown
Weather: no significant weather observed at this time

METAR text: EBLG 250250Z 27002KT CAVOK 08/06 Q1017 NOSIG
Conditions at: EBLG (BIERSET/LIEGE (C, BE) observed 0250 UTC 25 May 2019
Temperature: 8.0°C (46°F)
Dewpoint: 6.0°C (43°F) [RH = 87%]
Pressure (altimeter): 30.03 inches Hg (1017.0 mb)
Winds: from the W (270 degrees) at 2 MPH (2 knots; 1.0 m/s)
Visibility: 6 or more miles (10+ km)
Ceiling: ceiling and visibility are OK
Clouds: unknown
Weather: no significant weather observed at this time

Forecast for: EBLG (BIERSET/LIEGE (C, BE)
Text: TAF EBLG 242300Z 2500/2606 VRB03KT CAVOK
Forecast period: 0000 UTC 25 May 2019 to 0600 UTC 26 May 2019
Forecast type: FROM: standard forecast or significant change
Winds: variable direction winds at 3 MPH (3 knots; 1.5 m/s)
Visibility: 6 or more miles 10+ km)
Ceiling: unknown
Clouds: missing
Weather: NSW  (no significant weather)
Text: PROB30
Forecast period: 1200 to 1700 UTC 25 May 2019
Forecast type: TEMPORARY: The following changes expected for less than half the time period
Visibility: 2.49 miles (4.01 km)
Ceiling: 1400 feet AGL
Clouds: broken clouds at 1400 feet AGL
scattered clouds at 3500 feet AGL
Weather: SHRA  (rain showers)

 AÉROPORT DE AÉROPORT

 INFORMATIONS DE PISTE
Piste 05L Longueur de la piste 7677 ft Largeur de la piste 148 ft
Élévation de la piste 637 ft Seuil de la piste déplacés 0 ft Runway heading 45
Piste 23R Longueur de la piste 7677 ft Largeur de la piste 148 ft
Élévation de la piste 585 ft Seuil de la piste déplacés 0 ft Runway heading 225
Piste 05R Longueur de la piste 10784 ft Largeur de la piste 148 ft
Élévation de la piste 652 ft Seuil de la piste déplacés 774 ft Runway heading 45
Piste 23L Longueur de la piste 10784 ft Largeur de la piste 148 ft
Élévation de la piste 603 ft Seuil de la piste déplacés 0 ft Runway heading 225

 AÉROPORT FRÉQUENCES
Type A/D Nom APP Féquence 119.275 MHZ
Type ATIS Nom ATIS Féquence 126.25 MHZ
Type CLD Nom CLNC DEL Féquence 121.8 MHZ
Type GND Nom GND Féquence 121.925 MHZ
Type TWR Nom TWR Féquence 129.25 MHZ

 SIDA DE NAVIGATION
Type NDB Nom Liege Féquence 349 KHZ
Type VOR-DME Nom Liege Féquence 115450 KHZ
Type NDB Nom Liege Féquence 290 KHZ



Powered by Virtual Airlines Manager [v2.6.2]